sensor_id;sensor_type;location;lat;lon;timestamp;temperature;humidity
6792;DHT22;3433;48.730;9.108;2023-04-01T00:00:05;9.20;99.90
6792;DHT22;3433;48.730;9.108;2023-04-01T00:02:52;9.10;99.90
6792;DHT22;3433;48.730;9.108;2023-04-01T00:05:40;9.20;99.90
6792;DHT22;3433;48.730;9.108;2023-04-01T00:08:27;9.30;99.90
6792;DHT22;3433;48.730;9.108;2023-04-01T00:11:15;9.30;99.90
6792;DHT22;3433;48.730;9.108;2023-04-01T00:14:02;9.30;99.90
6792;DHT22;3433;48.730;9.108;2023-04-01T00:16:50;9.30;99.90
6792;DHT22;3433;48.730;9.108;2023-04-01T00:19:38;9.40;99.90
6792;DHT22;3433;48.730;9.108;2023-04-01T00:22:25;9.30;99.90
6792;DHT22;3433;48.730;9.108;2023-04-01T00:25:13;9.40;99.90
6792;DHT22;3433;48.730;9.108;2023-04-01T00:28:00;9.40;99.90
6792;DHT22;3433;48.730;9.108;2023-04-01T00:30:47;9.40;99.90
6792;DHT22;3433;48.730;9.108;2023-04-01T00:33:36;9.40;99.90
6792;DHT22;3433;48.730;9.108;2023-04-01T00:36:23;9.40;99.90
6792;DHT22;3433;48.730;9.108;2023-04-01T00:39:10;9.40;99.90
6792;DHT22;3433;48.730;9.108;2023-04-01T00:41:58;9.50;99.90
6792;DHT22;3433;48.730;9.108;2023-04-01T00:44:47;9.60;99.90
6792;DHT22;3433;48.730;9.108;2023-04-01T00:47:34;9.60;99.90
6792;DHT22;3433;48.730;9.108;2023-04-01T00:50:24;9.60;99.90
6792;DHT22;3433;48.730;9.108;2023-04-01T00:53:12;9.40;99.90
6792;DHT22;3433;48.730;9.108;2023-04-01T00:56:04;9.50;99.90
6792;DHT22;3433;48.730;9.108;2023-04-01T00:58:57;9.50;99.90
6792;DHT22;3433;48.730;9.108;2023-04-01T01:01:45;9.50;99.90
6792;DHT22;3433;48.730;9.108;2023-04-01T01:04:34;9.60;99.90
6792;DHT22;3433;48.730;9.108;2023-04-01T01:07:29;9.60;99.90
6792;DHT22;3433;48.730;9.108;2023-04-01T01:10:23;9.60;99.90
6792;DHT22;3433;48.730;9.108;2023-04-01T01:13:15;9.70;99.90
6792;DHT22;3433;48.730;9.108;2023-04-01T01:16:07;9.70;99.90
6792;DHT22;3433;48.730;9.108;2023-04-01T01:19:04;9.70;99.90
6792;DHT22;3433;48.730;9.108;2023-04-01T01:22:06;9.70;99.90
6792;DHT22;3433;48.730;9.108;2023-04-01T01:25:15;9.70;99.90
6792;DHT22;3433;48.730;9.108;2023-04-01T01:28:18;9.60;99.90
6792;DHT22;3433;48.730;9.108;2023-04-01T01:31:14;9.60;99.90
6792;DHT22;3433;48.730;9.108;2023-04-01T01:34:14;9.60;99.90
6792;DHT22;3433;48.730;9.108;2023-04-01T01:37:08;9.60;99.90
6792;DHT22;3433;48.730;9.108;2023-04-01T01:40:02;9.60;99.90
6792;DHT22;3433;48.730;9.108;2023-04-01T01:42:53;9.60;99.90
6792;DHT22;3433;48.730;9.108;2023-04-01T01:45:46;9.60;99.90
6792;DHT22;3433;48.730;9.108;2023-04-01T01:48:35;9.60;99.90
6792;DHT22;3433;48.730;9.108;2023-04-01T01:51:24;9.50;99.90
6792;DHT22;3433;48.730;9.108;2023-04-01T01:54:16;9.50;99.90
6792;DHT22;3433;48.730;9.108;2023-04-01T01:57:07;9.50;99.90
6792;DHT22;3433;48.730;9.108;2023-04-01T01:59:59;9.50;99.90
6792;DHT22;3433;48.730;9.108;2023-04-01T02:02:48;9.60;99.90
6792;DHT22;3433;48.730;9.108;2023-04-01T02:05:36;9.50;99.90
6792;DHT22;3433;48.730;9.108;2023-04-01T02:08:28;9.40;99.90
6792;DHT22;3433;48.730;9.108;2023-04-01T02:11:19;9.40;99.90
6792;DHT22;3433;48.730;9.108;2023-04-01T02:14:14;9.50;99.90
6792;DHT22;3433;48.730;9.108;2023-04-01T02:17:05;9.50;99.90
6792;DHT22;3433;48.730;9.108;2023-04-01T02:19:56;9.50;99.90
6792;DHT22;3433;48.730;9.108;2023-04-01T02:22:48;9.50;99.90
6792;DHT22;3433;48.730;9.108;2023-04-01T02:25:37;9.50;99.90
6792;DHT22;3433;48.730;9.108;2023-04-01T02:28:26;9.50;99.90
6792;DHT22;3433;48.730;9.108;2023-04-01T02:31:14;9.30;99.90
6792;DHT22;3433;48.730;9.108;2023-04-01T02:34:03;9.30;99.90
6792;DHT22;3433;48.730;9.108;2023-04-01T02:36:50;9.20;99.90
6792;DHT22;3433;48.730;9.108;2023-04-01T02:39:39;9.20;99.90
6792;DHT22;3433;48.730;9.108;2023-04-01T02:42:28;9.30;99.90
6792;DHT22;3433;48.730;9.108;2023-04-01T02:45:17;9.20;99.90
6792;DHT22;3433;48.730;9.108;2023-04-01T02:48:05;9.30;99.90
6792;DHT22;3433;48.730;9.108;2023-04-01T02:50:53;9.20;99.90
6792;DHT22;3433;48.730;9.108;2023-04-01T02:53:40;9.20;99.90
6792;DHT22;3433;48.730;9.108;2023-04-01T02:56:27;9.00;99.90
6792;DHT22;3433;48.730;9.108;2023-04-01T02:59:15;9.10;99.90
6792;DHT22;3433;48.730;9.108;2023-04-01T03:02:03;9.10;99.90
6792;DHT22;3433;48.730;9.108;2023-04-01T03:04:51;9.10;99.90
6792;DHT22;3433;48.730;9.108;2023-04-01T03:07:38;9.00;99.90
6792;DHT22;3433;48.730;9.108;2023-04-01T03:10:25;9.00;99.90
6792;DHT22;3433;48.730;9.108;2023-04-01T03:13:13;9.10;99.90
6792;DHT22;3433;48.730;9.108;2023-04-01T03:16:00;9.00;99.90
6792;DHT22;3433;48.730;9.108;2023-04-01T03:18:48;9.00;99.90
6792;DHT22;3433;48.730;9.108;2023-04-01T03:21:38;9.00;99.90
6792;DHT22;3433;48.730;9.108;2023-04-01T03:24:25;9.00;99.90
6792;DHT22;3433;48.730;9.108;2023-04-01T03:27:12;9.00;99.90
6792;DHT22;3433;48.730;9.108;2023-04-01T03:29:59;9.00;99.90
6792;DHT22;3433;48.730;9.108;2023-04-01T03:32:47;9.00;99.90
6792;DHT22;3433;48.730;9.108;2023-04-01T03:35:35;8.90;99.90
6792;DHT22;3433;48.730;9.108;2023-04-01T03:38:22;8.90;99.90
6792;DHT22;3433;48.730;9.108;2023-04-01T03:41:12;8.70;99.90
6792;DHT22;3433;48.730;9.108;2023-04-01T03:43:59;8.90;99.90
6792;DHT22;3433;48.730;9.108;2023-04-01T03:46:46;9.00;99.90
6792;DHT22;3433;48.730;9.108;2023-04-01T03:49:33;8.90;99.90
6792;DHT22;3433;48.730;9.108;2023-04-01T03:52:22;9.00;99.90
6792;DHT22;3433;48.730;9.108;2023-04-01T03:55:09;9.00;99.90
6792;DHT22;3433;48.730;9.108;2023-04-01T03:57:56;9.00;99.90
6792;DHT22;3433;48.730;9.108;2023-04-01T04:00:43;8.90;99.90
6792;DHT22;3433;48.730;9.108;2023-04-01T04:03:30;8.90;99.90
6792;DHT22;3433;48.730;9.108;2023-04-01T04:06:18;8.90;99.90
6792;DHT22;3433;48.730;9.108;2023-04-01T04:09:07;8.90;99.90
6792;DHT22;3433;48.730;9.108;2023-04-01T04:11:54;8.90;99.90
6792;DHT22;3433;48.730;9.108;2023-04-01T04:14:41;8.90;99.90
6792;DHT22;3433;48.730;9.108;2023-04-01T04:17:29;8.80;99.90
6792;DHT22;3433;48.730;9.108;2023-04-01T04:20:16;8.90;99.90
6792;DHT22;3433;48.730;9.108;2023-04-01T04:23:03;8.90;99.90
6792;DHT22;3433;48.730;9.108;2023-04-01T04:25:56;8.90;99.90
6792;DHT22;3433;48.730;9.108;2023-04-01T04:28:44;8.90;99.90
6792;DHT22;3433;48.730;9.108;2023-04-01T04:31:31;8.90;99.90
6792;DHT22;3433;48.730;9.108;2023-04-01T04:34:18;8.80;99.90
6792;DHT22;3433;48.730;9.108;2023-04-01T04:37:07;8.80;99.90
6792;DHT22;3433;48.730;9.108;2023-04-01T04:39:54;8.80;99.90
6792;DHT22;3433;48.730;9.108;2023-04-01T04:42:43;8.70;99.90
6792;DHT22;3433;48.730;9.108;2023-04-01T04:45:30;8.70;99.90
6792;DHT22;3433;48.730;9.108;2023-04-01T04:48:17;8.80;99.90
6792;DHT22;3433;48.730;9.108;2023-04-01T04:51:06;8.70;99.90
6792;DHT22;3433;48.730;9.108;2023-04-01T04:53:53;8.70;99.90
6792;DHT22;3433;48.730;9.108;2023-04-01T04:56:40;8.70;99.90
6792;DHT22;3433;48.730;9.108;2023-04-01T04:59:29;8.60;99.90
6792;DHT22;3433;48.730;9.108;2023-04-01T05:02:17;8.60;99.90
6792;DHT22;3433;48.730;9.108;2023-04-01T05:05:05;8.60;99.90
6792;DHT22;3433;48.730;9.108;2023-04-01T05:07:52;8.60;99.90
6792;DHT22;3433;48.730;9.108;2023-04-01T05:10:39;8.60;99.90
6792;DHT22;3433;48.730;9.108;2023-04-01T05:13:27;8.50;99.90
6792;DHT22;3433;48.730;9.108;2023-04-01T05:16:17;8.60;99.90
6792;DHT22;3433;48.730;9.108;2023-04-01T05:19:04;8.70;99.90
6792;DHT22;3433;48.730;9.108;2023-04-01T05:21:51;8.70;99.90
6792;DHT22;3433;48.730;9.108;2023-04-01T05:24:39;8.60;99.90
6792;DHT22;3433;48.730;9.108;2023-04-01T05:27:27;8.70;99.90
6792;DHT22;3433;48.730;9.108;2023-04-01T05:30:14;8.80;99.90
6792;DHT22;3433;48.730;9.108;2023-04-01T05:33:03;8.80;99.90
6792;DHT22;3433;48.730;9.108;2023-04-01T05:35:50;8.70;99.90
6792;DHT22;3433;48.730;9.108;2023-04-01T05:38:38;8.80;99.90
6792;DHT22;3433;48.730;9.108;2023-04-01T05:41:25;8.70;99.90
6792;DHT22;3433;48.730;9.108;2023-04-01T05:44:13;8.80;99.90
6792;DHT22;3433;48.730;9.108;2023-04-01T05:47:00;8.80;99.90
6792;DHT22;3433;48.730;9.108;2023-04-01T05:49:48;8.90;99.90
6792;DHT22;3433;48.730;9.108;2023-04-01T05:52:35;8.90;99.90
6792;DHT22;3433;48.730;9.108;2023-04-01T05:55:23;9.00;99.90
6792;DHT22;3433;48.730;9.108;2023-04-01T05:58:10;9.00;99.90
6792;DHT22;3433;48.730;9.108;2023-04-01T06:01:01;9.00;99.90
6792;DHT22;3433;48.730;9.108;2023-04-01T06:03:49;8.80;99.90
6792;DHT22;3433;48.730;9.108;2023-04-01T06:06:37;8.80;99.90
6792;DHT22;3433;48.730;9.108;2023-04-01T06:09:29;9.00;99.90
6792;DHT22;3433;48.730;9.108;2023-04-01T06:12:32;9.00;99.90
6792;DHT22;3433;48.730;9.108;2023-04-01T06:15:38;8.90;99.90
6792;DHT22;3433;48.730;9.108;2023-04-01T06:18:44;9.00;99.90
6792;DHT22;3433;48.730;9.108;2023-04-01T06:22:27;9.10;99.90
6792;DHT22;3433;48.730;9.108;2023-04-01T06:25:43;9.10;99.90
6792;DHT22;3433;48.730;9.108;2023-04-01T06:28:59;9.20;99.90
6792;DHT22;3433;48.730;9.108;2023-04-01T06:32:09;9.10;99.90
6792;DHT22;3433;48.730;9.108;2023-04-01T06:35:24;9.30;99.90
6792;DHT22;3433;48.730;9.108;2023-04-01T06:38:25;9.30;99.90
6792;DHT22;3433;48.730;9.108;2023-04-01T06:41:32;9.40;99.90
6792;DHT22;3433;48.730;9.108;2023-04-01T06:44:28;9.50;99.90
6792;DHT22;3433;48.730;9.108;2023-04-01T06:47:32;9.60;99.90
6792;DHT22;3433;48.730;9.108;2023-04-01T06:50:24;9.40;99.90
6792;DHT22;3433;48.730;9.108;2023-04-01T06:53:19;9.50;99.90
6792;DHT22;3433;48.730;9.108;2023-04-01T06:56:10;9.50;99.90
6792;DHT22;3433;48.730;9.108;2023-04-01T06:59:00;9.40;99.90
6792;DHT22;3433;48.730;9.108;2023-04-01T07:01:51;9.40;99.90
6792;DHT22;3433;48.730;9.108;2023-04-01T07:04:44;9.30;99.90
6792;DHT22;3433;48.730;9.108;2023-04-01T07:07:36;9.40;99.90
6792;DHT22;3433;48.730;9.108;2023-04-01T07:10:33;9.50;99.90
6792;DHT22;3433;48.730;9.108;2023-04-01T07:13:26;9.60;99.90
6792;DHT22;3433;48.730;9.108;2023-04-01T07:16:16;9.70;99.90
6792;DHT22;3433;48.730;9.108;2023-04-01T07:19:09;9.60;99.90
6792;DHT22;3433;48.730;9.108;2023-04-01T07:22:01;9.50;99.90
6792;DHT22;3433;48.730;9.108;2023-04-01T07:24:51;9.70;99.90
6792;DHT22;3433;48.730;9.108;2023-04-01T07:27:41;9.70;99.90
6792;DHT22;3433;48.730;9.108;2023-04-01T07:30:38;9.60;99.90
6792;DHT22;3433;48.730;9.108;2023-04-01T07:33:35;9.60;99.90
6792;DHT22;3433;48.730;9.108;2023-04-01T07:36:27;9.50;99.90
6792;DHT22;3433;48.730;9.108;2023-04-01T07:39:28;9.60;99.90
6792;DHT22;3433;48.730;9.108;2023-04-01T07:42:26;9.60;99.90
6792;DHT22;3433;48.730;9.108;2023-04-01T07:45:20;9.50;99.90
6792;DHT22;3433;48.730;9.108;2023-04-01T07:48:18;9.70;99.90
6792;DHT22;3433;48.730;9.108;2023-04-01T07:51:10;9.70;99.90
6792;DHT22;3433;48.730;9.108;2023-04-01T07:54:04;9.50;99.90
6792;DHT22;3433;48.730;9.108;2023-04-01T07:56:57;9.60;99.90
6792;DHT22;3433;48.730;9.108;2023-04-01T07:59:56;9.80;99.90
6792;DHT22;3433;48.730;9.108;2023-04-01T08:02:59;9.90;99.90
6792;DHT22;3433;48.730;9.108;2023-04-01T08:05:55;9.80;99.90
6792;DHT22;3433;48.730;9.108;2023-04-01T08:08:54;10.00;99.90
6792;DHT22;3433;48.730;9.108;2023-04-01T08:11:55;9.80;99.90
6792;DHT22;3433;48.730;9.108;2023-04-01T08:14:52;9.70;99.90
6792;DHT22;3433;48.730;9.108;2023-04-01T08:17:46;9.70;99.90
6792;DHT22;3433;48.730;9.108;2023-04-01T08:20:45;9.80;99.90
6792;DHT22;3433;48.730;9.108;2023-04-01T08:23:37;9.90;99.90
6792;DHT22;3433;48.730;9.108;2023-04-01T08:26:34;9.80;99.90
6792;DHT22;3433;48.730;9.108;2023-04-01T08:29:25;9.90;99.90
6792;DHT22;3433;48.730;9.108;2023-04-01T08:32:16;10.10;99.90
6792;DHT22;3433;48.730;9.108;2023-04-01T08:35:09;9.90;99.90
6792;DHT22;3433;48.730;9.108;2023-04-01T08:38:09;10.00;99.90
6792;DHT22;3433;48.730;9.108;2023-04-01T08:41:00;9.90;99.90
6792;DHT22;3433;48.730;9.108;2023-04-01T08:47:24;9.60;99.90
6792;DHT22;3433;48.730;9.108;2023-04-01T08:51:01;9.60;99.90
6792;DHT22;3433;48.730;9.108;2023-04-01T08:57:12;9.50;99.90
6792;DHT22;3433;48.730;9.108;2023-04-01T09:00:11;9.60;99.90
6792;DHT22;3433;48.730;9.108;2023-04-01T09:03:19;9.60;99.90
6792;DHT22;3433;48.730;9.108;2023-04-01T09:06:33;9.60;99.90
6792;DHT22;3433;48.730;9.108;2023-04-01T09:09:50;9.50;99.90
6792;DHT22;3433;48.730;9.108;2023-04-01T09:13:03;9.40;99.90
6792;DHT22;3433;48.730;9.108;2023-04-01T09:16:12;9.50;99.90
6792;DHT22;3433;48.730;9.108;2023-04-01T09:19:21;9.70;99.90
6792;DHT22;3433;48.730;9.108;2023-04-01T09:22:24;10.00;99.90
6792;DHT22;3433;48.730;9.108;2023-04-01T09:25:35;10.20;99.90
6792;DHT22;3433;48.730;9.108;2023-04-01T09:28:32;10.00;99.90
6792;DHT22;3433;48.730;9.108;2023-04-01T09:31:38;10.20;99.90
6792;DHT22;3433;48.730;9.108;2023-04-01T09:34:51;10.30;99.90
6792;DHT22;3433;48.730;9.108;2023-04-01T09:37:53;10.30;99.90
6792;DHT22;3433;48.730;9.108;2023-04-01T09:40:48;10.20;99.90
6792;DHT22;3433;48.730;9.108;2023-04-01T09:43:52;10.20;99.90
6792;DHT22;3433;48.730;9.108;2023-04-01T09:46:52;10.00;99.90
6792;DHT22;3433;48.730;9.108;2023-04-01T09:49:55;9.80;99.90
6792;DHT22;3433;48.730;9.108;2023-04-01T09:52:51;9.90;99.90
6792;DHT22;3433;48.730;9.108;2023-04-01T09:56:21;10.20;99.90
6792;DHT22;3433;48.730;9.108;2023-04-01T10:03:02;10.10;99.90
6792;DHT22;3433;48.730;9.108;2023-04-01T10:06:42;10.10;99.90
6792;DHT22;3433;48.730;9.108;2023-04-01T10:09:56;10.00;99.90
6792;DHT22;3433;48.730;9.108;2023-04-01T10:16:34;9.90;99.90
6792;DHT22;3433;48.730;9.108;2023-04-01T10:23:19;10.20;99.90
6792;DHT22;3433;48.730;9.108;2023-04-01T10:26:28;10.30;99.90
6792;DHT22;3433;48.730;9.108;2023-04-01T10:29:33;10.40;99.90
6792;DHT22;3433;48.730;9.108;2023-04-01T10:36:18;10.50;99.90
6792;DHT22;3433;48.730;9.108;2023-04-01T10:39:34;10.70;99.90
6792;DHT22;3433;48.730;9.108;2023-04-01T10:46:26;10.70;99.90
6792;DHT22;3433;48.730;9.108;2023-04-01T10:49:43;11.00;99.90
6792;DHT22;3433;48.730;9.108;2023-04-01T10:52:52;11.20;99.90
6792;DHT22;3433;48.730;9.108;2023-04-01T10:56:21;11.00;99.90
6792;DHT22;3433;48.730;9.108;2023-04-01T10:59:56;10.90;99.90
6792;DHT22;3433;48.730;9.108;2023-04-01T11:09:27;10.80;99.90
6792;DHT22;3433;48.730;9.108;2023-04-01T11:26:16;10.70;99.90
6792;DHT22;3433;48.730;9.108;2023-04-01T11:29:20;10.70;99.90
6792;DHT22;3433;48.730;9.108;2023-04-01T11:32:24;10.70;99.90
6792;DHT22;3433;48.730;9.108;2023-04-01T11:38:57;10.50;99.90
6792;DHT22;3433;48.730;9.108;2023-04-01T11:41:58;10.70;99.90
6792;DHT22;3433;48.730;9.108;2023-04-01T11:44:53;10.90;99.90
6792;DHT22;3433;48.730;9.108;2023-04-01T11:48:13;11.00;99.90
6792;DHT22;3433;48.730;9.108;2023-04-01T11:51:22;11.10;99.90
6792;DHT22;3433;48.730;9.108;2023-04-01T11:54:31;10.90;99.90
6792;DHT22;3433;48.730;9.108;2023-04-01T12:01:01;10.80;99.90
6792;DHT22;3433;48.730;9.108;2023-04-01T12:04:13;10.70;99.90
6792;DHT22;3433;48.730;9.108;2023-04-01T12:07:11;10.90;99.90
6792;DHT22;3433;48.730;9.108;2023-04-01T12:10:05;10.90;99.90
6792;DHT22;3433;48.730;9.108;2023-04-01T12:13:05;10.90;99.90
6792;DHT22;3433;48.730;9.108;2023-04-01T12:16:13;10.80;99.90
6792;DHT22;3433;48.730;9.108;2023-04-01T12:19:08;10.90;99.90
6792;DHT22;3433;48.730;9.108;2023-04-01T12:22:06;11.00;99.90
6792;DHT22;3433;48.730;9.108;2023-04-01T12:25:05;11.00;99.90
6792;DHT22;3433;48.730;9.108;2023-04-01T12:28:05;10.90;99.90
6792;DHT22;3433;48.730;9.108;2023-04-01T12:31:03;10.80;99.90
6792;DHT22;3433;48.730;9.108;2023-04-01T12:34:12;11.00;99.90
6792;DHT22;3433;48.730;9.108;2023-04-01T12:37:07;11.20;99.90
6792;DHT22;3433;48.730;9.108;2023-04-01T12:40:25;11.40;99.90
6792;DHT22;3433;48.730;9.108;2023-04-01T12:46:49;11.70;99.90
6792;DHT22;3433;48.730;9.108;2023-04-01T12:49:52;11.80;99.90
6792;DHT22;3433;48.730;9.108;2023-04-01T12:52:51;12.20;99.90
6792;DHT22;3433;48.730;9.108;2023-04-01T12:55:49;12.20;99.90
6792;DHT22;3433;48.730;9.108;2023-04-01T12:59:01;12.20;99.90
6792;DHT22;3433;48.730;9.108;2023-04-01T13:02:01;12.40;99.90
6792;DHT22;3433;48.730;9.108;2023-04-01T13:05:18;12.40;99.90
6792;DHT22;3433;48.730;9.108;2023-04-01T13:08:20;12.20;99.90
6792;DHT22;3433;48.730;9.108;2023-04-01T13:11:18;12.40;99.90
6792;DHT22;3433;48.730;9.108;2023-04-01T13:14:33;12.20;99.90
6792;DHT22;3433;48.730;9.108;2023-04-01T13:17:26;12.00;99.90
6792;DHT22;3433;48.730;9.108;2023-04-01T13:20:23;12.00;99.90
6792;DHT22;3433;48.730;9.108;2023-04-01T13:23:24;12.00;99.90
6792;DHT22;3433;48.730;9.108;2023-04-01T13:26:20;11.90;99.90
6792;DHT22;3433;48.730;9.108;2023-04-01T13:29:13;12.00;99.90
6792;DHT22;3433;48.730;9.108;2023-04-01T13:32:23;12.00;99.90
6792;DHT22;3433;48.730;9.108;2023-04-01T13:35:22;12.00;99.90
6792;DHT22;3433;48.730;9.108;2023-04-01T13:38:30;12.20;99.90
6792;DHT22;3433;48.730;9.108;2023-04-01T13:41:25;12.20;99.90
6792;DHT22;3433;48.730;9.108;2023-04-01T13:44:20;12.20;99.90
6792;DHT22;3433;48.730;9.108;2023-04-01T13:50:37;12.00;99.90
6792;DHT22;3433;48.730;9.108;2023-04-01T13:53:53;12.00;99.90
6792;DHT22;3433;48.730;9.108;2023-04-01T13:56:54;12.00;99.90
6792;DHT22;3433;48.730;9.108;2023-04-01T14:03:28;11.70;99.90
6792;DHT22;3433;48.730;9.108;2023-04-01T14:06:29;11.80;99.90
6792;DHT22;3433;48.730;9.108;2023-04-01T14:09:45;11.90;99.90
6792;DHT22;3433;48.730;9.108;2023-04-01T14:12:42;11.80;99.90
6792;DHT22;3433;48.730;9.108;2023-04-01T14:18:58;11.90;99.90
6792;DHT22;3433;48.730;9.108;2023-04-01T14:21:55;11.80;99.90
6792;DHT22;3433;48.730;9.108;2023-04-01T14:28:11;11.90;99.90
6792;DHT22;3433;48.730;9.108;2023-04-01T14:31:18;12.00;99.90
6792;DHT22;3433;48.730;9.108;2023-04-01T14:34:25;12.00;99.90
6792;DHT22;3433;48.730;9.108;2023-04-01T14:37:31;11.70;99.90
6792;DHT22;3433;48.730;9.108;2023-04-01T14:40:27;11.60;99.90
6792;DHT22;3433;48.730;9.108;2023-04-01T14:43:23;11.60;99.90
6792;DHT22;3433;48.730;9.108;2023-04-01T14:49:49;11.40;99.90
6792;DHT22;3433;48.730;9.108;2023-04-01T14:52:40;11.50;99.90
6792;DHT22;3433;48.730;9.108;2023-04-01T14:55:32;11.50;99.90
6792;DHT22;3433;48.730;9.108;2023-04-01T14:58:22;11.50;99.90
6792;DHT22;3433;48.730;9.108;2023-04-01T15:01:20;11.40;99.90
6792;DHT22;3433;48.730;9.108;2023-04-01T15:04:35;11.50;99.90
6792;DHT22;3433;48.730;9.108;2023-04-01T15:07:45;11.40;99.90
6792;DHT22;3433;48.730;9.108;2023-04-01T15:17:43;11.50;99.90
6792;DHT22;3433;48.730;9.108;2023-04-01T15:20:48;11.60;99.90
6792;DHT22;3433;48.730;9.108;2023-04-01T15:23:47;11.60;99.90
6792;DHT22;3433;48.730;9.108;2023-04-01T15:27:02;11.60;99.90
6792;DHT22;3433;48.730;9.108;2023-04-01T15:30:14;11.60;99.90
6792;DHT22;3433;48.730;9.108;2023-04-01T15:33:19;11.60;99.90
6792;DHT22;3433;48.730;9.108;2023-04-01T15:36:17;11.60;99.90
6792;DHT22;3433;48.730;9.108;2023-04-01T15:39:13;11.60;99.90
6792;DHT22;3433;48.730;9.108;2023-04-01T15:42:32;11.60;99.90
6792;DHT22;3433;48.730;9.108;2023-04-01T15:45:36;11.60;99.90
6792;DHT22;3433;48.730;9.108;2023-04-01T15:48:39;11.60;99.90
6792;DHT22;3433;48.730;9.108;2023-04-01T15:51:47;11.60;99.90
6792;DHT22;3433;48.730;9.108;2023-04-01T15:58:29;11.40;99.90
6792;DHT22;3433;48.730;9.108;2023-04-01T16:01:27;11.40;99.90
6792;DHT22;3433;48.730;9.108;2023-04-01T16:04:36;11.30;99.90
6792;DHT22;3433;48.730;9.108;2023-04-01T16:07:43;11.30;99.90
6792;DHT22;3433;48.730;9.108;2023-04-01T16:10:48;11.20;99.90
6792;DHT22;3433;48.730;9.108;2023-04-01T16:13:51;11.20;99.90
6792;DHT22;3433;48.730;9.108;2023-04-01T16:17:02;11.30;99.90
6792;DHT22;3433;48.730;9.108;2023-04-01T16:19:59;11.40;99.90
6792;DHT22;3433;48.730;9.108;2023-04-01T16:22:55;11.30;99.90
6792;DHT22;3433;48.730;9.108;2023-04-01T16:25:51;11.30;99.90
6792;DHT22;3433;48.730;9.108;2023-04-01T16:28:45;11.20;99.90
6792;DHT22;3433;48.730;9.108;2023-04-01T16:31:42;11.20;99.90
6792;DHT22;3433;48.730;9.108;2023-04-01T16:34:34;11.20;99.90
6792;DHT22;3433;48.730;9.108;2023-04-01T16:37:29;11.30;99.90
6792;DHT22;3433;48.730;9.108;2023-04-01T16:40:25;11.20;99.90
6792;DHT22;3433;48.730;9.108;2023-04-01T16:43:20;11.20;99.90
6792;DHT22;3433;48.730;9.108;2023-04-01T16:46:32;11.20;99.90
6792;DHT22;3433;48.730;9.108;2023-04-01T16:49:28;11.20;99.90
6792;DHT22;3433;48.730;9.108;2023-04-01T16:52:30;11.20;99.90
6792;DHT22;3433;48.730;9.108;2023-04-01T16:55:19;11.20;99.90
6792;DHT22;3433;48.730;9.108;2023-04-01T16:58:08;11.20;99.90
6792;DHT22;3433;48.730;9.108;2023-04-01T17:01:02;11.20;99.90
6792;DHT22;3433;48.730;9.108;2023-04-01T17:03:53;11.30;99.90
6792;DHT22;3433;48.730;9.108;2023-04-01T17:06:48;11.20;99.90
6792;DHT22;3433;48.730;9.108;2023-04-01T17:09:50;11.20;99.90
6792;DHT22;3433;48.730;9.108;2023-04-01T17:12:42;11.30;99.90
6792;DHT22;3433;48.730;9.108;2023-04-01T17:15:38;11.20;99.90
6792;DHT22;3433;48.730;9.108;2023-04-01T17:18:38;11.20;99.90
6792;DHT22;3433;48.730;9.108;2023-04-01T17:21:37;11.10;99.90
6792;DHT22;3433;48.730;9.108;2023-04-01T17:24:32;11.20;99.90
6792;DHT22;3433;48.730;9.108;2023-04-01T17:27:33;11.20;99.90
6792;DHT22;3433;48.730;9.108;2023-04-01T17:30:29;11.20;99.90
6792;DHT22;3433;48.730;9.108;2023-04-01T17:36:45;11.10;99.90
6792;DHT22;3433;48.730;9.108;2023-04-01T17:39:53;11.10;99.90
6792;DHT22;3433;48.730;9.108;2023-04-01T17:42:52;11.00;99.90
6792;DHT22;3433;48.730;9.108;2023-04-01T17:45:45;11.10;99.90
6792;DHT22;3433;48.730;9.108;2023-04-01T17:48:41;11.00;99.90
6792;DHT22;3433;48.730;9.108;2023-04-01T17:51:37;11.10;99.90
6792;DHT22;3433;48.730;9.108;2023-04-01T17:54:34;11.10;99.90
6792;DHT22;3433;48.730;9.108;2023-04-01T17:57:39;11.00;99.90
6792;DHT22;3433;48.730;9.108;2023-04-01T18:00:38;11.10;99.90
6792;DHT22;3433;48.730;9.108;2023-04-01T18:06:53;11.00;99.90
6792;DHT22;3433;48.730;9.108;2023-04-01T18:09:50;11.00;99.90
6792;DHT22;3433;48.730;9.108;2023-04-01T18:13:08;11.00;99.90
6792;DHT22;3433;48.730;9.108;2023-04-01T18:16:12;11.10;99.90
6792;DHT22;3433;48.730;9.108;2023-04-01T18:19:09;11.10;99.90
6792;DHT22;3433;48.730;9.108;2023-04-01T18:22:10;11.10;99.90
6792;DHT22;3433;48.730;9.108;2023-04-01T18:25:12;11.00;99.90
6792;DHT22;3433;48.730;9.108;2023-04-01T18:28:16;10.90;99.90
6792;DHT22;3433;48.730;9.108;2023-04-01T18:31:08;10.80;99.90
6792;DHT22;3433;48.730;9.108;2023-04-01T18:34:02;10.80;99.90
6792;DHT22;3433;48.730;9.108;2023-04-01T18:36:56;10.70;99.90
6792;DHT22;3433;48.730;9.108;2023-04-01T18:39:51;10.60;99.90
6792;DHT22;3433;48.730;9.108;2023-04-01T18:42:45;10.60;99.90
6792;DHT22;3433;48.730;9.108;2023-04-01T18:45:37;10.50;99.90
6792;DHT22;3433;48.730;9.108;2023-04-01T18:48:40;10.30;99.90
6792;DHT22;3433;48.730;9.108;2023-04-01T18:51:38;10.10;99.90
6792;DHT22;3433;48.730;9.108;2023-04-01T18:54:29;10.10;99.90
6792;DHT22;3433;48.730;9.108;2023-04-01T18:57:20;10.10;99.90
6792;DHT22;3433;48.730;9.108;2023-04-01T19:00:13;10.00;99.90
6792;DHT22;3433;48.730;9.108;2023-04-01T19:03:08;9.90;99.90
6792;DHT22;3433;48.730;9.108;2023-04-01T19:06:00;10.00;99.90
6792;DHT22;3433;48.730;9.108;2023-04-01T19:08:54;9.80;99.90
6792;DHT22;3433;48.730;9.108;2023-04-01T19:11:49;9.80;99.90
6792;DHT22;3433;48.730;9.108;2023-04-01T19:14:53;9.90;99.90
6792;DHT22;3433;48.730;9.108;2023-04-01T19:17:48;9.80;99.90
6792;DHT22;3433;48.730;9.108;2023-04-01T19:20:43;9.90;99.90
6792;DHT22;3433;48.730;9.108;2023-04-01T19:24:03;9.90;99.90
6792;DHT22;3433;48.730;9.108;2023-04-01T19:27:01;9.80;99.90
6792;DHT22;3433;48.730;9.108;2023-04-01T19:30:02;9.80;99.90
6792;DHT22;3433;48.730;9.108;2023-04-01T19:32:58;9.80;99.90
6792;DHT22;3433;48.730;9.108;2023-04-01T19:35:53;9.80;99.90
6792;DHT22;3433;48.730;9.108;2023-04-01T19:38:53;9.70;99.90
6792;DHT22;3433;48.730;9.108;2023-04-01T19:41:45;9.60;99.90
6792;DHT22;3433;48.730;9.108;2023-04-01T19:44:41;9.60;99.90
6792;DHT22;3433;48.730;9.108;2023-04-01T19:47:44;9.50;99.90
6792;DHT22;3433;48.730;9.108;2023-04-01T19:50:37;9.60;99.90
6792;DHT22;3433;48.730;9.108;2023-04-01T19:53:31;9.70;99.90
6792;DHT22;3433;48.730;9.108;2023-04-01T19:56:23;9.60;99.90
6792;DHT22;3433;48.730;9.108;2023-04-01T19:59:18;9.70;99.90
6792;DHT22;3433;48.730;9.108;2023-04-01T20:02:39;9.70;99.90
6792;DHT22;3433;48.730;9.108;2023-04-01T20:05:41;9.60;99.90
6792;DHT22;3433;48.730;9.108;2023-04-01T20:08:36;9.60;99.90
6792;DHT22;3433;48.730;9.108;2023-04-01T20:11:46;9.70;99.90
6792;DHT22;3433;48.730;9.108;2023-04-01T20:14:43;9.70;99.90
6792;DHT22;3433;48.730;9.108;2023-04-01T20:17:41;9.60;99.90
6792;DHT22;3433;48.730;9.108;2023-04-01T20:20:30;9.60;99.90
6792;DHT22;3433;48.730;9.108;2023-04-01T20:23:34;9.60;99.90
6792;DHT22;3433;48.730;9.108;2023-04-01T20:26:25;9.60;99.90
6792;DHT22;3433;48.730;9.108;2023-04-01T20:29:27;9.60;99.90
6792;DHT22;3433;48.730;9.108;2023-04-01T20:32:32;9.60;99.90
6792;DHT22;3433;48.730;9.108;2023-04-01T20:35:35;9.50;99.90
6792;DHT22;3433;48.730;9.108;2023-04-01T20:38:45;9.60;99.90
6792;DHT22;3433;48.730;9.108;2023-04-01T20:41:40;9.50;99.90
6792;DHT22;3433;48.730;9.108;2023-04-01T20:44:35;9.50;99.90
6792;DHT22;3433;48.730;9.108;2023-04-01T20:47:34;9.50;99.90
6792;DHT22;3433;48.730;9.108;2023-04-01T20:50:30;9.60;99.90
6792;DHT22;3433;48.730;9.108;2023-04-01T20:53:21;9.60;99.90
6792;DHT22;3433;48.730;9.108;2023-04-01T20:56:23;9.60;99.90